• Join FlightAware (Why Join?)
  • Login
  • US Flag 
09:54AM EST


 

Airport Tracker/Info


-or-


 

Live Flight TrackerFlight Track Log ✈ AAL832 ✈ 21-Jun-2013 ✈ KLAX - KORD

Flight Track Log - Related Links

Times and Time Zones

All times are in EDT time to prevent confusion due to time zone crossing. See the AAL832 flight status page for this flight to view local times or setup timezone preferences in your user account.

Time Position Orientation Groundspeed Altitude Reporting Facility
EDT Latitude Longitude Course Direction KTS MPH feet Rate Location/Type
01:03PM 33.9360 -118.4200 263° West 173 199 800  Level FlightAware
01:03PM 33.9340 -118.4450 264° West 191 220 1,600 1,560 Climbing FlightAware
01:03PM 33.9310 -118.4660 260° West 217 250 2,000 1,560 Climbing FlightAware
01:04PM 33.9220 -118.4970 251° West 247 284 2,800 2,460 Climbing FlightAware
01:04PM 33.9080 -118.5370 247° West 261 300 4,300 3,180 Climbing FlightAware
01:05PM 33.8970 -118.5560 235° Southwest 268 308 5,200 3,600 Climbing FlightAware
01:05PM 33.8630 -118.5720 201° Southwest 288 331 6,400 2,400 Climbing FlightAware
01:05PM 33.8530 -118.5710 175° South 289 333 6,800 1,680 Climbing FlightAware
01:05PM 33.8340 -118.5610 156° South 297 342 7,400 2,760 Climbing FlightAware
01:06PM 33.8200 -118.5400 129° Southeast 299 344 8,200 3,000 Climbing FlightAware
01:06PM 33.8150 -118.5150 104° East 302 348 8,900 3,060 Climbing FlightAware
01:06PM 33.8360 -118.4670 62° Northeast 305 351 10,200 2,220 Climbing FlightAware
01:07PM 33.8950 -118.4430 19° North 331 381 11,300 1,560 Climbing FlightAware
01:08PM 33.9420 -118.4190 23° Northeast 357 411 12,100 1,740 Climbing FlightAware
01:08PM 33.9580 -118.3940 52° Northeast 370 426 12,700 2,100 Climbing FlightAware
01:08PM 33.9960 -118.3210 58° Northeast 388 447 14,100 2,160 Climbing FlightAware
01:09PM 34.0320 -118.2550 57° Northeast 393 452 15,500 2,220 Climbing FlightAware
01:10PM 34.0850 -118.1650 55° Northeast 406 467 17,300 2,040 Climbing FlightAware
01:11PM 34.1270 -118.0920 55° Northeast 419 482 18,500 1,560 Climbing FlightAware
01:12PM 34.2170 -117.9320 56° Northeast 449 517 20,600 1,740 Climbing FlightAware
01:13PM 34.2660 -117.8400 57° Northeast 452 520 22,100 2,040 Climbing FlightAware
01:13PM 34.3230 -117.7390 56° Northeast 459 528 23,500 1,380 Climbing FlightAware
01:14PM 34.3570 -117.6800 55° Northeast 465 535 24,200 1,320 Climbing FlightAware
01:15PM 34.4170 -117.5730 56° Northeast 478 550 25,200 1,380 Climbing FlightAware
01:16PM 34.5080 -117.4090 56° Northeast 490 564 26,900 1,200 Climbing FlightAware
01:17PM 34.5670 -117.3020 56° Northeast 499 574 27,800 1,200 Climbing FlightAware
01:17PM 34.6300 -117.1880 56° Northeast 508 585 28,700 1,320 Climbing FlightAware
01:18PM 34.6920 -117.0980 50° Northeast 505 581 29,700 1,500 Climbing FlightAware
01:19PM 34.7480 -117.0230 48° Northeast 502 578 30,600 1,380 Climbing FlightAware
01:20PM 34.8190 -116.9270 48° Northeast 501 577 31,600 600 Climbing FlightAware
01:20PM 34.8810 -116.8430 48° Northeast 501 577 31,600  Level FlightAware
01:21PM 34.9280 -116.7780 49° Northeast 501 577 31,600  Level FlightAware
01:22PM 34.9890 -116.6960 48° Northeast 501 577 31,600  Level FlightAware
01:22PM 35.0390 -116.6280 48° Northeast 501 577 31,600  Level FlightAware
01:23PM 35.1220 -116.5160 48° Northeast 501 577 31,600  Level FlightAware
01:24PM 35.1760 -116.4420 48° Northeast 501 577 31,600 3,780 Level FlightAware
01:25PM 35.2880 -116.2790 50° Northeast 499 574 36,500 3,900 Climbing FlightAware
01:25PM 35.3400 -116.2090 48° Northeast 499 574 36,500  Level FlightAware
01:26PM 35.4040 -116.1210 48° Northeast 499 574 36,500 300 Level FlightAware
01:27PM 35.4870 -116.0020 49° Northeast 501 577 37,000 360 Climbing FlightAware
01:27PM 35.5440 -115.9200 49° Northeast 502 578 37,000  Level FlightAware
01:28PM 35.6070 -115.8200 52° Northeast 503 579 37,000  Level FlightAware
01:29PM 35.6690 -115.7190 53° Northeast 503 579 37,000  Level FlightAware
01:30PM 35.7220 -115.6340 52° Northeast 503 579 37,000  Level FlightAware
01:30PM 35.7870 -115.5290 53° Northeast 500 575 37,000  Level FlightAware
01:31PM 35.8400 -115.4420 53° Northeast 501 577 37,000  Level FlightAware
01:32PM 35.9040 -115.3390 52° Northeast 501 577 37,000  Level FlightAware
01:32PM 35.9630 -115.2430 53° Northeast 501 577 37,000  Level FlightAware
01:33PM 36.0190 -115.1510 53° Northeast 503 579 37,000  Level FlightAware
01:34PM 36.0790 -115.0530 53° Northeast 503 579 37,000  Level FlightAware
01:34PM 36.1380 -114.9550 53° Northeast 505 581 37,000  Level FlightAware
01:35PM 36.2050 -114.8430 53° Northeast 506 582 37,000  Level FlightAware
01:36PM 36.2690 -114.7360 53° Northeast 506 582 37,000  Level FlightAware
01:37PM 36.3350 -114.6300 52° Northeast 507 583 37,000  Level FlightAware
01:38PM 36.3930 -114.5340 53° Northeast 508 585 37,000  Level FlightAware
01:38PM 36.4360 -114.4630 53° Northeast 509 586 37,000  Level FlightAware
01:39PM 36.4910 -114.3700 54° Northeast 508 585 37,000  Level FlightAware
01:39PM 36.5410 -114.2870 53° Northeast 509 586 37,000  Level FlightAware
01:40PM 36.6280 -114.1400 54° Northeast 510 587 37,000  Level FlightAware
01:41PM 36.6830 -114.0470 54° Northeast 510 587 37,000  Level FlightAware
01:42PM 36.7470 -113.9390 53° Northeast 510 587 37,000  Level FlightAware
01:42PM 36.8000 -113.8500 53° Northeast 510 587 37,000  Level FlightAware
01:43PM 36.8520 -113.7620 54° Northeast 509 586 37,000  Level FlightAware
01:44PM 36.9160 -113.6520 54° Northeast 509 586 37,000  Level FlightAware
01:44PM 36.9510 -113.5910 54° Northeast 509 586 37,000  Level FlightAware
01:45PM 37.0340 -113.4500 54° Northeast 509 586 37,000  Level FlightAware
01:46PM 37.0970 -113.3410 54° Northeast 509 586 37,000  Level FlightAware
01:47PM 37.1530 -113.2450 54° Northeast 509 586 37,000  Level FlightAware
01:47PM 37.2060 -113.1530 54° Northeast 509 586 37,000  Level FlightAware
01:48PM 37.2800 -113.0240 54° Northeast 510 587 37,000  Level FlightAware
01:49PM 37.3430 -112.9150 54° Northeast 511 588 37,000  Level FlightAware
01:50PM 37.3880 -112.8370 54° Northeast 511 588 37,000  Level FlightAware
01:51PM 37.4760 -112.6840 54° Northeast 511 588 37,000  Level FlightAware
01:52PM 37.5210 -112.6060 54° Northeast 511 588 37,000  Level FlightAware
01:52PM 37.5680 -112.5240 54° Northeast 511 588 37,000  Level FlightAware
01:53PM 37.6260 -112.4230 54° Northeast 511 588 37,000  Level FlightAware
01:54PM 37.6720 -112.3430 54° Northeast 511 588 37,000  Level FlightAware
01:55PM 37.7480 -112.2120 54° Northeast 511 588 37,000  Level FlightAware
01:55PM 37.8830 -111.9680 55° Northeast 506 582 37,000  Level FlightAware
01:56PM 37.9490 -111.8540 54° Northeast 504 580 37,000  Level FlightAware
01:57PM 37.9850 -111.7900 54° Northeast 502 578 37,000  Level FlightAware
01:58PM 38.0620 -111.6550 54° Northeast 500 575 37,000  Level FlightAware
01:58PM 38.1120 -111.5680 54° Northeast 499 574 37,000  Level FlightAware
01:59PM 38.1710 -111.4640 54° Northeast 498 573 37,000  Level FlightAware
02:00PM 38.2320 -111.3560 54° Northeast 498 573 37,000  Level FlightAware
02:00PM 38.2840 -111.2630 55° Northeast 496 571 37,000  Level FlightAware
02:01PM 38.3380 -111.1670 54° Northeast 500 575 37,000  Level FlightAware
02:02PM 38.3950 -111.0660 54° Northeast 499 574 37,000  Level FlightAware
02:03PM 38.4560 -110.9550 55° Northeast 496 571 37,000  Level FlightAware
02:03PM 38.5290 -110.8250 54° Northeast 498 573 37,000  Level FlightAware
02:04PM 38.5820 -110.7290 55° Northeast 493 567 37,000  Level FlightAware
02:05PM 38.6380 -110.6270 55° Northeast 491 565 37,000  Level FlightAware
02:06PM 38.6960 -110.5220 55° Northeast 488 562 37,000  Level FlightAware
02:06PM 38.7410 -110.4400 55° Northeast 486 559 37,000  Level FlightAware
02:07PM 38.8020 -110.3290 55° Northeast 485 558 37,000  Level FlightAware
02:08PM 38.8540 -110.2330 55° Northeast 484 557 37,000  Level FlightAware
02:08PM 38.9090 -110.1330 55° Northeast 483 556 37,000  Level FlightAware
02:09PM 38.9630 -110.0330 55° Northeast 480 552 37,000  Level FlightAware
02:10PM 39.0510 -109.8690 55° Northeast 480 552 37,000  Level FlightAware
02:11PM 39.1390 -109.7050 55° Northeast 479 551 37,000  Level FlightAware
02:12PM 39.1870 -109.6150 55° Northeast 476 548 37,000  Level FlightAware
02:13PM 39.2390 -109.5180 55° Northeast 476 548 37,000  Level FlightAware
02:13PM 39.2970 -109.4100 55° Northeast 474 545 37,000  Level FlightAware
02:14PM 39.3430 -109.3230 56° Northeast 473 544 37,000  Level FlightAware
02:15PM 39.4000 -109.2160 55° Northeast 472 543 37,000  Level FlightAware
02:16PM 39.4520 -109.1170 56° Northeast 471 542 37,000  Level FlightAware
02:16PM 39.5050 -109.0160 56° Northeast 468 539 37,000  Level FlightAware
02:17PM 39.5510 -108.9270 56° Northeast 467 537 37,000  Level FlightAware
02:18PM 39.6030 -108.8290 55° Northeast 466 536 37,000  Level FlightAware
02:18PM 39.6550 -108.7280 56° Northeast 465 535 37,000  Level FlightAware
02:19PM 39.7040 -108.6350 56° Northeast 464 534 37,000  Level FlightAware
02:20PM 39.7720 -108.5030 56° Northeast 462 532 37,000  Level FlightAware
02:21PM 39.8220 -108.4060 56° Northeast 462 532 37,000  Level FlightAware
02:22PM 39.8870 -108.2780 56° Northeast 460 529 37,000  Level FlightAware
02:22PM 39.9360 -108.1840 56° Northeast 460 529 37,000  Level FlightAware
02:23PM 39.9820 -108.0930 57° Northeast 464 534 37,000  Level FlightAware
02:24PM 40.0370 -107.9840 57° Northeast 466 536 37,000  Level FlightAware
02:24PM 40.0850 -107.8840 58° Northeast 466 536 37,000  Level FlightAware
02:25PM 40.1300 -107.7830 60° Northeast 466 536 37,000  Level FlightAware
02:26PM 40.1740 -107.6820 60° Northeast 467 537 37,000  Level FlightAware
02:26PM 40.2170 -107.5860 60° Northeast 467 537 37,000  Level FlightAware
02:27PM 40.2680 -107.4680 60° Northeast 467 537 37,000  Level FlightAware
02:28PM 40.3110 -107.3700 60° Northeast 469 540 37,000  Level FlightAware
02:29PM 40.3550 -107.2660 61° Northeast 474 545 37,000  Level FlightAware
02:29PM 40.3990 -107.1650 60° Northeast 479 551 37,000  Level FlightAware
02:30PM 40.4191 -107.1190 60° Northeast 480 552 37,000  Level FlightAware ADS-B
02:31PM 40.4930 -106.9480 60° Northeast 480 552 37,000  Level FlightAware
02:31PM 40.5360 -106.8450 61° Northeast 480 552 37,000  Level FlightAware
02:32PM 40.5860 -106.7280 61° Northeast 477 549 37,000  Level FlightAware
02:33PM 40.6290 -106.6270 61° Northeast 471 542 37,000  Level FlightAware
02:33PM 40.6690 -106.5320 61° Northeast 470 541 37,000  Level FlightAware
02:34PM 40.7180 -106.4160 61° Northeast 470 541 37,000  Level FlightAware
02:35PM 40.7570 -106.3250 60° Northeast 471 542 37,000  Level FlightAware
02:36PM 40.8030 -106.2040 63° Northeast 468 539 37,000  Level FlightAware
02:36PM 40.8350 -106.0990 68° East 466 536 37,000  Level FlightAware
02:37PM 40.8630 -105.9890 71° East 468 539 37,000  Level FlightAware
02:38PM 40.8930 -105.8730 71° East 470 541 37,000  Level FlightAware
02:38PM 40.9230 -105.7560 71° East 471 542 37,000  Level FlightAware
02:39PM 40.9470 -105.6590 72° East 471 542 37,000  Level FlightAware
02:39PM 40.9661 -105.5860 71° East 474 545 37,000  Level FlightAware ADS-B
02:40PM 40.9912 -105.4870 71° East 475 547 37,000  Level FlightAware ADS-B
02:41PM 41.0370 -105.3040 72° East 477 549 37,000  Level FlightAware
02:42PM 41.0590 -105.2170 71° East 479 551 37,000  Level FlightAware ADS-B
02:42PM 41.0801 -105.1330 72° East 481 554 37,000  Level FlightAware ADS-B
02:43PM 41.1010 -105.0480 72° East 482 555 37,000  Level FlightAware ADS-B
02:43PM 41.1221 -104.9630 72° East 482 555 37,000  Level FlightAware ADS-B
02:44PM 41.1428 -104.8790 72° East 481 554 37,000  Level FlightAware ADS-B
02:44PM 41.1639 -104.7930 72° East 480 552 37,000  Level FlightAware ADS-B
02:45PM 41.1873 -104.6980 72° East 480 552 37,000  Level FlightAware ADS-B
02:45PM 41.2086 -104.6100 72° East 479 551 37,000  Level FlightAware ADS-B
02:46PM 41.2289 -104.5260 72° East 478 550 37,000  Level FlightAware ADS-B
02:46PM 41.2491 -104.4430 72° East 477 549 37,000  Level FlightAware ADS-B
02:47PM 41.2693 -104.3590 72° East 474 545 37,000  Level FlightAware ADS-B
02:47PM 41.2894 -104.2760 72° East 471 542 37,000  Level FlightAware ADS-B
02:48PM 41.3092 -104.1940 72° East 466 536 37,000  Level FlightAware ADS-B
02:48PM 41.3290 -104.1110 72° East 467 537 37,000  Level FlightAware ADS-B
02:49PM 41.3489 -104.0270 72° East 466 536 37,000  Level FlightAware ADS-B
02:49PM 41.3684 -103.9440 73° East 465 535 37,000  Level FlightAware ADS-B
02:50PM 41.3880 -103.8610 73° East 463 533 37,000  Level FlightAware ADS-B
02:50PM 41.4074 -103.7780 73° East 462 532 37,000  Level FlightAware ADS-B
02:51PM 41.4265 -103.6970 73° East 461 531 37,000  Level FlightAware ADS-B
02:51PM 41.4465 -103.6110 73° East 458 527 37,000  Level FlightAware ADS-B
02:52PM 41.4654 -103.5300 73° East 456 525 37,000  Level FlightAware ADS-B
02:52PM 41.4841 -103.4490 73° East 455 524 37,000  Level FlightAware ADS-B
02:53PM 41.5026 -103.3690 73° East 454 522 37,000  Level FlightAware ADS-B
02:53PM 41.5211 -103.2880 73° East 453 521 37,000  Level FlightAware ADS-B
02:54PM 41.5406 -103.2040 73° East 451 519 37,000  Level FlightAware ADS-B
02:54PM 41.5592 -103.1220 73° East 449 517 37,000  Level FlightAware ADS-B
02:55PM 41.5780 -103.0390 73° East 450 518 37,000  Level FlightAware ADS-B
02:56PM 41.6024 -102.9320 73° East 451 519 37,000  Level FlightAware ADS-B
02:56PM 41.6212 -102.8480 73° East 451 519 37,000  Level FlightAware ADS-B
02:57PM 41.6394 -102.7680 73° East 450 518 37,000  Level FlightAware ADS-B
02:57PM 41.6592 -102.6790 73° East 449 517 37,000  Level FlightAware ADS-B
02:58PM 41.6773 -102.5970 74° East 449 517 37,000  Level FlightAware ADS-B
02:59PM 41.7118 -102.4410 73° East 447 514 37,000  Level FlightAware ADS-B
02:59PM 41.7296 -102.3610 73° East 447 514 37,000  Level FlightAware ADS-B
03:00PM 41.7499 -102.2690 73° East 447 514 37,000  Level FlightAware ADS-B
03:00PM 41.7684 -102.1840 74° East 449 517 37,000  Level FlightAware ADS-B
03:01PM 41.7889 -102.0900 74° East 450 518 37,000  Level FlightAware ADS-B
03:01PM 41.8066 -102.0090 74° East 451 519 37,000  Level FlightAware ADS-B
03:02PM 41.8240 -101.9280 74° East 452 520 37,000  Level FlightAware ADS-B
03:03PM 41.8441 -101.8350 74° East 451 519 37,000  Level FlightAware ADS-B
03:03PM 41.8624 -101.7490 74° East 452 520 37,000  Level FlightAware ADS-B
03:04PM 41.8809 -101.6620 74° East 451 519 37,000  Level FlightAware ADS-B
03:04PM 41.9019 -101.5719 74° East 451 519 37,000  Level Minneapolis Center
03:05PM 41.9192 -101.4864 75° East 453 521 37,000  Level Denver Center
03:06PM 41.9619 -101.2794 74° East 452 520 37,000  Level Denver Center
03:07PM 41.9997 -101.0978 74° East 452 520 37,000  Level Denver Center
03:08PM 42.0325 -100.9403 74° East 454 522 37,000  Level Denver Center
03:09PM 42.0592 -100.8097 75° East 453 521 37,000  Level Denver Center
03:10PM 42.1006 -100.6031 75° East 450 518 37,000  Level Denver Center
03:11PM 42.1317 -100.4486 75° East 448 516 37,000  Level Denver Center
03:12PM 42.1681 -100.2681 75° East 447 514 37,000  Level Denver Center
03:13PM 42.1992 -100.1139 75° East 445 512 37,000  Level Denver Center
03:14PM 42.2336 -99.9336 75° East 444 511 37,000  Level Denver Center
03:15PM 42.2644 -99.7789 75° East 445 512 37,000  Level Denver Center
03:16PM 42.2939 -99.6253 75° East 446 513 37,000  Level Denver Center
03:17PM 42.3319 -99.4272 75° East 451 519 37,000  Level Denver Center
03:18PM 42.3631 -99.2619 76° East 452 520 37,000  Level Denver Center
03:20PM 42.3950 -99.0953 75° East 455 524 37,000  Level Denver Center
03:21PM 42.4253 -98.9278 76° East 457 526 37,000  Level Denver Center
03:22PM 42.4567 -98.7622 76° East 454 522 37,000  Level Denver Center
03:23PM 42.4792 -98.5269 83° East 452 520 37,000  Level Minneapolis Center
03:24PM 42.4881 -98.3603 86° East 445 512 37,000  Level Minneapolis Center
03:30PM 42.5340 -97.2880 86° East 448 516 37,000  Level FlightAware
03:31PM 42.5380 -97.1760 87° East 448 516 37,000  Level FlightAware
03:32PM 42.5430 -97.0440 87° East 445 512 37,000  Level FlightAware
03:32PM 42.5470 -96.9440 87° East 444 511 37,000  Level FlightAware
03:33PM 42.5510 -96.8270 87° East 444 511 37,000  Level FlightAware
03:34PM 42.5550 -96.7060 87° East 445 512 37,000  Level FlightAware
03:34PM 42.5590 -96.5840 87° East 445 512 37,000  Level FlightAware
03:35PM 42.5620 -96.4810 88° East 445 512 37,000  Level FlightAware
03:36PM 42.5660 -96.3540 88° East 445 512 37,000  Level FlightAware
03:37PM 42.5700 -96.2370 87° East 443 510 37,000  Level FlightAware
03:37PM 42.5730 -96.1130 88° East 444 511 37,000  Level FlightAware
03:38PM 42.5770 -95.9980 87° East 443 510 37,000  Level FlightAware
03:39PM 42.5790 -95.8950 88° East 444 511 37,000  Level FlightAware
03:39PM 42.5720 -95.7730 94° East 439 505 37,000  Level FlightAware
03:41PM 42.5600 -95.5830 95° East 438 504 37,000  Level FlightAware
03:41PM 42.5520 -95.4250 94° East 445 512 37,000  Level FlightAware
03:42PM 42.5460 -95.3090 94° East 447 514 37,000  Level FlightAware
03:43PM 42.5410 -95.2220 94° East 450 518 37,000  Level FlightAware
03:44PM 42.5380 -95.0690 91° East 455 524 37,000  Level FlightAware
03:44PM 42.5350 -94.9550 92° East 455 524 37,000  Level FlightAware
03:45PM 42.5400 -94.8400 87° East 466 536 37,000  Level FlightAware
03:46PM 42.5490 -94.7910 76° East 465 535 37,000  Level FlightAware
03:47PM 42.5960 -94.5580 75° East 464 534 37,000  Level FlightAware
03:47PM 42.6210 -94.4160 76° East 458 527 37,000  Level FlightAware
03:48PM 42.6360 -94.3120 79° East 453 521 37,000  Level FlightAware
03:49PM 42.6460 -94.1850 84° East 447 514 37,000  Level FlightAware
03:50PM 42.6390 -94.0600 94° East 442 509 37,000  Level FlightAware
03:50PM 42.6340 -93.9610 94° East 442 509 37,000  Level FlightAware
03:51PM 42.6270 -93.8370 94° East 442 509 37,000  Level FlightAware
03:52PM 42.6200 -93.7140 94° East 442 509 37,000  Level FlightAware
03:52PM 42.6130 -93.6040 95° East 442 509 37,000  Level FlightAware
03:53PM 42.6060 -93.4880 95° East 444 511 37,000  Level FlightAware
03:54PM 42.5990 -93.3680 94° East 445 512 37,000  Level FlightAware
03:54PM 42.5920 -93.2560 95° East 446 513 37,000  Level FlightAware
03:55PM 42.5850 -93.1430 95° East 450 518 37,000  Level FlightAware
03:56PM 42.5840 -93.0480 91° East 457 526 37,000  Level FlightAware
03:56PM 42.5860 -92.8960 89° East 458 527 37,000  Level FlightAware
03:57PM 42.5870 -92.7790 89° East 457 526 37,000  Level FlightAware
03:58PM 42.5880 -92.6570 89° East 455 524 37,000  Level FlightAware
03:59PM 42.5890 -92.5360 89° East 452 520 37,000 -540 Level FlightAware
03:59PM 42.5900 -92.4130 89° East 448 516 36,300 -720 Descending FlightAware
04:00PM 42.5900 -92.2980 90° East 456 525 35,700 -960 Descending FlightAware
04:01PM 42.5910 -92.1010 90° East 461 531 34,600 -1,380 Descending FlightAware
04:02PM 42.5910 -91.9930 90° East 463 533 34,000 -960 Descending FlightAware
04:03PM 42.5910 -91.8600 90° East 465 535 33,300 -1,020 Descending FlightAware
04:03PM 42.5910 -91.7320 90° East 465 535 32,500 -960 Descending FlightAware
04:04PM 42.5910 -91.6080 90° East 467 537 31,900 -960 Descending FlightAware
04:05PM 42.5900 -91.4840 91° East 473 544 31,200 -1,020 Descending FlightAware
04:05PM 42.5900 -91.3750 90° East 473 544 30,600 -1,020 Descending FlightAware
04:06PM 42.5890 -91.2390 91° East 471 542 29,800 -1,080 Descending FlightAware
04:07PM 42.5880 -91.1130 91° East 465 535 29,100 -660 Descending FlightAware
04:07PM 42.5880 -91.0130 90° East 464 534 29,000 -180 Descending FlightAware
04:08PM 42.5870 -90.8690 90° East 465 535 28,900 -600 Descending FlightAware
04:09PM 42.5850 -90.7050 91° East 463 533 28,000 -1,020 Descending FlightAware
04:10PM 42.5840 -90.5860 91° East 460 529 27,300 -1,080 Descending FlightAware
04:10PM 42.5830 -90.4780 91° East 445 512 26,600 -1,080 Descending FlightAware
04:11PM 42.5810 -90.3480 91° East 438 504 25,800 -1,080 Descending FlightAware
04:12PM 42.5790 -90.2370 91° East 435 501 25,100 -1,020 Descending FlightAware
04:13PM 42.5780 -90.1200 91° East 431 496 24,400 -780 Descending FlightAware
04:13PM 42.5760 -90.0060 91° East 429 494 24,000 -360 Descending FlightAware
04:14PM 42.5740 -89.9070 92° East 428 493 24,000 -480 Level FlightAware
04:15PM 42.5660 -89.7870 95° East 422 486 23,400 -1,380 Descending FlightAware
04:15PM 42.5550 -89.6770 98° East 413 475 22,000 -1,980 Descending FlightAware
04:16PM 42.5450 -89.5860 98° East 406 467 20,900 -1,800 Descending FlightAware
04:17PM 42.5330 -89.4680 98° East 395 455 19,500 -1,800 Descending FlightAware
04:17PM 42.5230 -89.3750 98° East 387 445 18,400 -1,860 Descending FlightAware
04:18PM 42.5120 -89.2650 98° East 381 438 16,900 -1,920 Descending FlightAware
04:19PM 42.5010 -89.1680 99° East 371 427 15,600 -1,800 Descending FlightAware
04:20PM 42.4920 -89.0820 98° East 352 405 14,500 -1,680 Descending FlightAware
04:20PM 42.4810 -88.9840 99° East 346 398 13,300 -1,620 Descending FlightAware
04:21PM 42.4720 -88.9000 98° East 341 392 12,200 -1,440 Descending FlightAware
04:22PM 42.4610 -88.8050 99° East 335 386 11,300 -1,200 Descending FlightAware
04:22PM 42.4430 -88.7240 107° East 328 377 10,500 -1,020 Descending FlightAware
04:23PM 42.4220 -88.6540 112° Southeast 319 367 10,000 -900 Descending FlightAware
04:23PM 42.4110 -88.6170 112° Southeast 323 372 9,700 -660 Descending FlightAware
04:24PM 42.3960 -88.5680 113° Southeast 328 377 9,500 -660 Descending FlightAware
04:24PM 42.3780 -88.5110 113° Southeast 330 380 9,100 -540 Descending FlightAware
04:25PM 42.3560 -88.4660 123° Southeast 327 376 9,000 -300 Descending FlightAware
04:25PM 42.3410 -88.4410 129° Southeast 323 372 8,900 -1,080 Descending FlightAware
04:25PM 42.3180 -88.4000 127° Southeast 327 376 8,300 -1,440 Descending FlightAware
04:26PM 42.3020 -88.3740 130° Southeast 327 376 7,900 -1,200 Descending FlightAware
04:26PM 42.2660 -88.3100 127° Southeast 321 369 7,200 -1,200 Descending FlightAware
04:27PM 42.2390 -88.2630 128° Southeast 318 366 6,500 -1,200 Descending FlightAware
04:27PM 42.2160 -88.2230 128° Southeast 307 353 6,100 -1,380 Descending FlightAware
04:28PM 42.1910 -88.1810 129° Southeast 301 346 5,300 -1,500 Descending FlightAware
04:28PM 42.1770 -88.1580 129° Southeast 295 339 5,000 -600 Descending FlightAware
04:28PM 42.1580 -88.1250 128° Southeast 261 300 4,900 -480 Descending FlightAware
04:29PM 42.1440 -88.1060 135° Southeast 240 276 4,700 -1,080 Descending FlightAware
04:29PM 42.1260 -88.0860 141° Southeast 225 259 4,200 -1,320 Descending FlightAware
04:29PM 42.1110 -88.0690 140° Southeast 214 246 3,800 -1,200 Descending FlightAware
04:30PM 42.0920 -88.0470 139° Southeast 190 219 3,300 -1,080 Descending FlightAware
04:31PM 42.0560 -88.0080 141° Southeast 172 198 2,400 -960 Descending FlightAware
04:31PM 42.0440 -87.9940 139° Southeast 152 175 2,100 -840 Descending FlightAware
04:32PM 42.0330 -87.9810 139° Southeast 131 151 1,800 -720 Descending FlightAware
04:32PM 42.0200 -87.9670 141° Southeast 121 139 1,500 -660 Descending FlightAware
04:32PM 42.0090 -87.9540 139° Southeast 122 140 1,200 -660 Descending FlightAware
04:33PM 42.0000 -87.9440 140° Southeast 132 152 1,000 -660 Descending FlightAware
04:34PM 41.9790 -87.9200 140° Southeast 67 77 -1,200 Descending FlightAware
04:34PM 41.9740 -87.9140 138° Southeast 52 60  Level FlightAware